Clipper Iwagi — 3FDP2 — position and weather

sailwx.info

Track history (hours):
 
Tides and Currents Weather Stations Pressure Air Temp Water Temp Dewpoint Dewpoint Depression Visibility Wind Speed Wind Dir Waves Ship Positions

Clipper Iwagi

Last reported at 2018-Apr-15 10:42 UTC. Time now 2018-May-22 16:04 UTC.
Position N 31°33' E 032°11'.
Warning: this ship's position is 37 days out of date.

Length 169 m; draft 9.8 m.

Type: Cargo ship. MMSI: 356496000.

Date/timePositionNaut miles runAvg speedWind from/ knotsBaromVisibWave heightAir tempDewpointWater temp
2018-Apr-15 10:42N 31°33' E 032°11'1611.2
2018-Apr-15 09:18N 31°45' E 031°58'311.6
2018-Apr-15 09:00N 31°47' E 031°55'  
2018-Apr-12 05:00N 35°46' E 015°13'1711.3
2018-Apr-12 03:31N 35°51' E 014°54'0 4.7
2018-Apr-12 03:30N 35°51' E 014°54'510.3
2018-Apr-12 03:00N 35°52' E 014°47'1 0.6
2018-Apr-12 01:24N 35°52' E 014°46'0 0.0
2018-Apr-12 00:54N 35°52' E 014°46'0 0.0
2018-Apr-12 00:15N 35°52' E 014°46'0 0.0
2018-Apr-12 00:00N 35°52' E 014°46'0 0.0
2018-Apr-11 23:27N 35°52' E 014°46'0 0.0
2018-Apr-11 23:00N 35°52' E 014°46'0 0.0
2018-Apr-11 22:21N 35°52' E 014°46'0 0.0
2018-Apr-11 21:57N 35°52' E 014°46'0 0.0
2018-Apr-11 20:49N 35°52' E 014°46'0 0.0
2018-Apr-11 19:18N 35°52' E 014°46'0 0.0
2018-Apr-11 18:33N 35°52' E 014°46'0 0.0
2018-Apr-11 18:30N 35°52' E 014°46'0 0.0
2018-Apr-11 18:00N 35°52' E 014°46'0 0.0
2018-Apr-11 17:29N 35°52' E 014°46'0 0.0
2018-Apr-11 16:54N 35°52' E 014°46'0 0.0
2018-Apr-11 16:30N 35°52' E 014°46'0 0.0
2018-Apr-11 16:00N 35°52' E 014°46'0 0.0
2018-Apr-11 15:27N 35°52' E 014°46'0 0.0
2018-Apr-11 14:57N 35°52' E 014°46'0 0.0
2018-Apr-11 14:28N 35°52' E 014°46'0 0.0
2018-Apr-11 14:00N 35°52' E 014°46'0 0.0
2018-Apr-11 13:21N 35°52' E 014°46'0 0.0
2018-Apr-11 12:57N 35°52' E 014°46'0 0.0
2018-Apr-11 12:30N 35°52' E 014°46'0 0.0
2018-Apr-11 12:00N 35°52' E 014°46'0 0.1
2018-Apr-11 11:30N 35°52' E 014°46'1 2.5
2018-Apr-11 10:59N 35°53' E 014°45'4 9.0
2018-Apr-11 10:29N 35°56' E 014°40'611.6
2018-Apr-11 09:58N 35°59' E 014°34'5 9.9
2018-Apr-11 09:30N 36°02' E 014°30'3 5.9
2018-Apr-11 09:00N 36°04' E 014°27'510.7
2018-Apr-11 08:30N 36°07' E 014°22'510.6
2018-Apr-11 08:00N 36°10' E 014°16'510.6
2018-Apr-11 07:30N 36°12' E 014°10'510.5
2018-Apr-11 07:00N 36°14' E 014°04'510.1
2018-Apr-11 06:30N 36°17' E 013°59'611.0
2018-Apr-11 05:56N 36°19' E 013°51'4 9.7
2018-Apr-11 05:30N 36°21' E 013°47'510.1
2018-Apr-11 05:00N 36°23' E 013°41'510.4
2018-Apr-11 04:29N 36°25' E 013°35'611.2
2018-Apr-11 04:00N 36°28' E 013°29'5 9.1
2018-Apr-11 03:30N 36°30' E 013°24'1510.8
2018-Apr-11 02:06N 36°36' E 013°07'111.8
2018-Apr-11 01:58N 36°36' E 013°05'  
2018-Apr-07 21:59N 36°00' W 005°11'714.0
2018-Apr-07 21:30N 35°59' W 005°19'714.8
2018-Apr-07 21:00N 35°57' W 005°28'  
Track history (hours):
 
Tides and Currents Weather Stations Pressure Air Temp Water Temp Dewpoint Dewpoint Depression Visibility Wind Speed Wind Dir Waves Ship Positions

Clipper Iwagi

Last reported at 2018-Apr-15 10:42 UTC. Time now 2018-May-22 16:04 UTC.
Position N 31°33' E 032°11'.
Warning: this ship's position is 37 days out of date.

Length 169 m; draft 9.8 m.

Type: Cargo ship. MMSI: 356496000.

Date/timePositionNaut miles runAvg speedWind from/ knotsBaromVisibWave heightAir tempDewpointWater temp
2018-Apr-15 10:42N 31°33' E 032°11'1611.2
2018-Apr-15 09:18N 31°45' E 031°58'311.6
2018-Apr-15 09:00N 31°47' E 031°55'  
2018-Apr-12 05:00N 35°46' E 015°13'1711.3
2018-Apr-12 03:31N 35°51' E 014°54'0 4.7
2018-Apr-12 03:30N 35°51' E 014°54'510.3
2018-Apr-12 03:00N 35°52' E 014°47'1 0.6
2018-Apr-12 01:24N 35°52' E 014°46'0 0.0
2018-Apr-12 00:54N 35°52' E 014°46'0 0.0
2018-Apr-12 00:15N 35°52' E 014°46'0 0.0
2018-Apr-12 00:00N 35°52' E 014°46'0 0.0
2018-Apr-11 23:27N 35°52' E 014°46'0 0.0
2018-Apr-11 23:00N 35°52' E 014°46'0 0.0
2018-Apr-11 22:21N 35°52' E 014°46'0 0.0
2018-Apr-11 21:57N 35°52' E 014°46'0 0.0
2018-Apr-11 20:49N 35°52' E 014°46'0 0.0
2018-Apr-11 19:18N 35°52' E 014°46'0 0.0
2018-Apr-11 18:33N 35°52' E 014°46'0 0.0
2018-Apr-11 18:30N 35°52' E 014°46'0 0.0
2018-Apr-11 18:00N 35°52' E 014°46'0 0.0
2018-Apr-11 17:29N 35°52' E 014°46'0 0.0
2018-Apr-11 16:54N 35°52' E 014°46'0 0.0
2018-Apr-11 16:30N 35°52' E 014°46'0 0.0
2018-Apr-11 16:00N 35°52' E 014°46'0 0.0
2018-Apr-11 15:27N 35°52' E 014°46'0 0.0
2018-Apr-11 14:57N 35°52' E 014°46'0 0.0
2018-Apr-11 14:28N 35°52' E 014°46'0 0.0
2018-Apr-11 14:00N 35°52' E 014°46'0 0.0
2018-Apr-11 13:21N 35°52' E 014°46'0 0.0
2018-Apr-11 12:57N 35°52' E 014°46'0 0.0
2018-Apr-11 12:30N 35°52' E 014°46'0 0.0
2018-Apr-11 12:00N 35°52' E 014°46'0 0.1
2018-Apr-11 11:30N 35°52' E 014°46'1 2.5
2018-Apr-11 10:59N 35°53' E 014°45'4 9.0
2018-Apr-11 10:29N 35°56' E 014°40'611.6
2018-Apr-11 09:58N 35°59' E 014°34'5 9.9
2018-Apr-11 09:30N 36°02' E 014°30'3 5.9
2018-Apr-11 09:00N 36°04' E 014°27'510.7
2018-Apr-11 08:30N 36°07' E 014°22'510.6
2018-Apr-11 08:00N 36°10' E 014°16'510.6
2018-Apr-11 07:30N 36°12' E 014°10'510.5
2018-Apr-11 07:00N 36°14' E 014°04'510.1
2018-Apr-11 06:30N 36°17' E 013°59'611.0
2018-Apr-11 05:56N 36°19' E 013°51'4 9.7
2018-Apr-11 05:30N 36°21' E 013°47'510.1
2018-Apr-11 05:00N 36°23' E 013°41'510.4
2018-Apr-11 04:29N 36°25' E 013°35'611.2
2018-Apr-11 04:00N 36°28' E 013°29'5 9.1
2018-Apr-11 03:30N 36°30' E 013°24'1510.8
2018-Apr-11 02:06N 36°36' E 013°07'111.8
2018-Apr-11 01:58N 36°36' E 013°05'  
2018-Apr-07 21:59N 36°00' W 005°11'714.0
2018-Apr-07 21:30N 35°59' W 005°19'714.8
2018-Apr-07 21:00N 35°57' W 005°28'  

Dump ship's entire track history